sensor_id;sensor_type;location;lat;lon;timestamp;P1;durP1;ratioP1;P2;durP2;ratioP2
46613;SDS011;32338;50.430;6.806;2022-10-04T00:00:56;8.52;;;2.13;;
46613;SDS011;32338;50.430;6.806;2022-10-04T00:03:38;21.65;;;2.05;;
46613;SDS011;32338;50.430;6.806;2022-10-04T00:06:11;2.78;;;1.40;;
46613;SDS011;32338;50.430;6.806;2022-10-04T00:08:43;5.00;;;1.80;;
46613;SDS011;32338;50.430;6.806;2022-10-04T00:11:14;10.18;;;1.77;;
46613;SDS011;32338;50.430;6.806;2022-10-04T00:13:48;31.75;;;1.73;;
46613;SDS011;32338;50.430;6.806;2022-10-04T00:16:20;8.73;;;1.63;;
46613;SDS011;32338;50.430;6.806;2022-10-04T00:19:01;45.38;;;1.98;;
46613;SDS011;32338;50.430;6.806;2022-10-04T00:22:10;17.45;;;1.90;;
46613;SDS011;32338;50.430;6.806;2022-10-04T00:33:52;6.60;;;2.40;;
46613;SDS011;32338;50.430;6.806;2022-10-04T00:36:34;4.30;;;1.70;;
46613;SDS011;32338;50.430;6.806;2022-10-04T00:39:25;5.00;;;1.70;;
46613;SDS011;32338;50.430;6.806;2022-10-04T00:45:02;24.88;;;8.40;;
46613;SDS011;32338;50.430;6.806;2022-10-04T00:47:38;14.40;;;6.43;;
46613;SDS011;32338;50.430;6.806;2022-10-04T00:50:24;20.95;;;7.82;;
46613;SDS011;32338;50.430;6.806;2022-10-04T00:52:56;24.05;;;7.07;;
46613;SDS011;32338;50.430;6.806;2022-10-04T00:55:27;14.23;;;6.78;;
46613;SDS011;32338;50.430;6.806;2022-10-04T00:58:06;11.23;;;4.47;;
46613;SDS011;32338;50.430;6.806;2022-10-04T01:00:39;7.47;;;3.22;;
46613;SDS011;32338;50.430;6.806;2022-10-04T01:03:08;8.57;;;3.15;;
46613;SDS011;32338;50.430;6.806;2022-10-04T01:05:41;9.45;;;3.80;;
46613;SDS011;32338;50.430;6.806;2022-10-04T01:08:12;6.30;;;2.85;;
46613;SDS011;32338;50.430;6.806;2022-10-04T01:10:43;7.38;;;3.30;;
46613;SDS011;32338;50.430;6.806;2022-10-04T01:13:15;10.60;;;2.55;;
46613;SDS011;32338;50.430;6.806;2022-10-04T01:15:47;5.20;;;2.22;;
46613;SDS011;32338;50.430;6.806;2022-10-04T01:18:29;4.33;;;2.10;;
46613;SDS011;32338;50.430;6.806;2022-10-04T01:20:58;4.13;;;2.63;;
46613;SDS011;32338;50.430;6.806;2022-10-04T01:23:33;2.85;;;2.33;;
46613;SDS011;32338;50.430;6.806;2022-10-04T01:26:06;38.72;;;3.13;;
46613;SDS011;32338;50.430;6.806;2022-10-04T01:29:06;25.77;;;2.67;;
46613;SDS011;32338;50.430;6.806;2022-10-04T01:31:36;85.32;;;2.88;;
46613;SDS011;32338;50.430;6.806;2022-10-04T01:34:04;40.30;;;3.03;;
46613;SDS011;32338;50.430;6.806;2022-10-04T01:36:31;6.18;;;2.65;;
46613;SDS011;32338;50.430;6.806;2022-10-04T01:39:00;7.18;;;2.42;;
46613;SDS011;32338;50.430;6.806;2022-10-04T01:41:28;65.65;;;2.38;;
46613;SDS011;32338;50.430;6.806;2022-10-04T01:46:31;68.40;;;1.98;;
46613;SDS011;32338;50.430;6.806;2022-10-04T01:49:02;48.80;;;1.35;;
46613;SDS011;32338;50.430;6.806;2022-10-04T01:51:33;75.13;;;2.40;;
46613;SDS011;32338;50.430;6.806;2022-10-04T01:54:05;192.65;;;3.85;;
46613;SDS011;32338;50.430;6.806;2022-10-04T01:56:37;50.35;;;1.98;;
46613;SDS011;32338;50.430;6.806;2022-10-04T01:59:12;16.33;;;1.40;;
46613;SDS011;32338;50.430;6.806;2022-10-04T02:01:42;32.10;;;1.92;;
46613;SDS011;32338;50.430;6.806;2022-10-04T02:04:13;13.65;;;2.20;;
46613;SDS011;32338;50.430;6.806;2022-10-04T02:06:43;49.17;;;2.80;;
46613;SDS011;32338;50.430;6.806;2022-10-04T02:09:13;118.05;;;4.03;;
46613;SDS011;32338;50.430;6.806;2022-10-04T02:11:43;7.00;;;1.75;;
46613;SDS011;32338;50.430;6.806;2022-10-04T02:14:16;13.43;;;2.25;;
46613;SDS011;32338;50.430;6.806;2022-10-04T02:16:46;18.58;;;2.25;;
46613;SDS011;32338;50.430;6.806;2022-10-04T02:19:16;24.10;;;2.00;;
46613;SDS011;32338;50.430;6.806;2022-10-04T02:21:44;17.88;;;1.80;;
46613;SDS011;32338;50.430;6.806;2022-10-04T02:24:13;6.97;;;1.50;;
46613;SDS011;32338;50.430;6.806;2022-10-04T02:26:41;3.45;;;1.27;;
46613;SDS011;32338;50.430;6.806;2022-10-04T02:29:08;1.35;;;1.17;;
46613;SDS011;32338;50.430;6.806;2022-10-04T02:31:36;0.80;;;0.80;;
46613;SDS011;32338;50.430;6.806;2022-10-04T02:34:21;2.30;;;1.30;;
46613;SDS011;32338;50.430;6.806;2022-10-04T02:36:48;1.33;;;1.23;;
46613;SDS011;32338;50.430;6.806;2022-10-04T02:39:19;2.20;;;2.00;;
46613;SDS011;32338;50.430;6.806;2022-10-04T02:41:49;2.35;;;2.15;;
46613;SDS011;32338;50.430;6.806;2022-10-04T02:44:19;4.63;;;2.88;;
46613;SDS011;32338;50.430;6.806;2022-10-04T02:46:52;4.43;;;3.53;;
46613;SDS011;32338;50.430;6.806;2022-10-04T02:49:25;11.30;;;3.60;;
46613;SDS011;32338;50.430;6.806;2022-10-04T02:51:57;5.10;;;2.00;;
46613;SDS011;32338;50.430;6.806;2022-10-04T02:54:28;3.97;;;1.95;;
46613;SDS011;32338;50.430;6.806;2022-10-04T02:56:59;3.80;;;1.38;;
46613;SDS011;32338;50.430;6.806;2022-10-04T02:59:26;5.60;;;1.30;;
46613;SDS011;32338;50.430;6.806;2022-10-04T03:01:56;4.55;;;1.17;;
46613;SDS011;32338;50.430;6.806;2022-10-04T03:04:25;6.10;;;1.73;;
46613;SDS011;32338;50.430;6.806;2022-10-04T03:06:53;9.57;;;1.27;;
46613;SDS011;32338;50.430;6.806;2022-10-04T03:09:21;1.60;;;1.38;;
46613;SDS011;32338;50.430;6.806;2022-10-04T03:11:50;4.07;;;1.65;;
46613;SDS011;32338;50.430;6.806;2022-10-04T03:14:18;1.95;;;1.60;;
46613;SDS011;32338;50.430;6.806;2022-10-04T03:16:47;1.73;;;1.50;;
46613;SDS011;32338;50.430;6.806;2022-10-04T03:19:18;2.33;;;1.60;;
46613;SDS011;32338;50.430;6.806;2022-10-04T03:21:48;4.03;;;1.60;;
46613;SDS011;32338;50.430;6.806;2022-10-04T03:24:17;4.80;;;2.10;;
46613;SDS011;32338;50.430;6.806;2022-10-04T03:26:47;6.05;;;1.48;;
46613;SDS011;32338;50.430;6.806;2022-10-04T03:29:19;4.10;;;1.42;;
46613;SDS011;32338;50.430;6.806;2022-10-04T03:31:48;4.75;;;1.55;;
46613;SDS011;32338;50.430;6.806;2022-10-04T03:34:18;8.68;;;1.73;;
46613;SDS011;32338;50.430;6.806;2022-10-04T03:36:48;6.65;;;1.60;;
46613;SDS011;32338;50.430;6.806;2022-10-04T03:39:23;2.65;;;1.40;;
46613;SDS011;32338;50.430;6.806;2022-10-04T03:41:53;1.95;;;1.63;;
46613;SDS011;32338;50.430;6.806;2022-10-04T03:44:23;2.97;;;1.65;;
46613;SDS011;32338;50.430;6.806;2022-10-04T03:46:50;6.13;;;2.22;;
46613;SDS011;32338;50.430;6.806;2022-10-04T03:49:19;3.72;;;1.65;;
46613;SDS011;32338;50.430;6.806;2022-10-04T03:51:55;5.70;;;2.20;;
46613;SDS011;32338;50.430;6.806;2022-10-04T03:54:23;3.83;;;1.95;;
46613;SDS011;32338;50.430;6.806;2022-10-04T03:56:52;4.03;;;1.58;;
46613;SDS011;32338;50.430;6.806;2022-10-04T03:59:19;35.97;;;2.50;;
46613;SDS011;32338;50.430;6.806;2022-10-04T04:01:54;24.92;;;2.63;;
46613;SDS011;32338;50.430;6.806;2022-10-04T04:04:32;52.95;;;2.53;;
46613;SDS011;32338;50.430;6.806;2022-10-04T04:07:06;3.55;;;1.60;;
46613;SDS011;32338;50.430;6.806;2022-10-04T04:09:39;1.95;;;1.42;;
46613;SDS011;32338;50.430;6.806;2022-10-04T04:12:10;8.95;;;1.50;;
46613;SDS011;32338;50.430;6.806;2022-10-04T04:14:43;3.38;;;1.05;;
46613;SDS011;32338;50.430;6.806;2022-10-04T04:17:28;60.22;;;2.17;;
46613;SDS011;32338;50.430;6.806;2022-10-04T04:20:01;221.85;;;4.95;;
46613;SDS011;32338;50.430;6.806;2022-10-04T04:22:31;204.73;;;5.18;;
46613;SDS011;32338;50.430;6.806;2022-10-04T04:25:00;38.15;;;1.58;;
46613;SDS011;32338;50.430;6.806;2022-10-04T04:27:29;7.13;;;1.58;;
46613;SDS011;32338;50.430;6.806;2022-10-04T04:30:03;30.52;;;1.73;;
46613;SDS011;32338;50.430;6.806;2022-10-04T04:32:32;7.18;;;1.60;;
46613;SDS011;32338;50.430;6.806;2022-10-04T04:35:04;31.30;;;1.70;;
46613;SDS011;32338;50.430;6.806;2022-10-04T04:37:43;51.33;;;1.95;;
46613;SDS011;32338;50.430;6.806;2022-10-04T04:40:10;62.22;;;2.38;;
46613;SDS011;32338;50.430;6.806;2022-10-04T04:42:44;5.53;;;0.90;;
46613;SDS011;32338;50.430;6.806;2022-10-04T04:45:14;7.90;;;1.10;;
46613;SDS011;32338;50.430;6.806;2022-10-04T04:47:43;45.95;;;1.55;;
46613;SDS011;32338;50.430;6.806;2022-10-04T04:50:13;5.57;;;1.20;;
46613;SDS011;32338;50.430;6.806;2022-10-04T04:52:43;111.32;;;2.53;;
46613;SDS011;32338;50.430;6.806;2022-10-04T04:55:15;22.10;;;0.95;;
46613;SDS011;32338;50.430;6.806;2022-10-04T04:57:44;14.18;;;0.90;;
46613;SDS011;32338;50.430;6.806;2022-10-04T05:00:16;26.02;;;0.98;;
46613;SDS011;32338;50.430;6.806;2022-10-04T05:02:51;7.50;;;0.95;;
46613;SDS011;32338;50.430;6.806;2022-10-04T05:05:21;5.25;;;0.70;;
46613;SDS011;32338;50.430;6.806;2022-10-04T05:07:49;8.15;;;0.90;;
46613;SDS011;32338;50.430;6.806;2022-10-04T05:10:28;46.42;;;1.13;;
46613;SDS011;32338;50.430;6.806;2022-10-04T05:12:56;37.05;;;1.38;;
46613;SDS011;32338;50.430;6.806;2022-10-04T05:15:26;7.30;;;0.90;;
46613;SDS011;32338;50.430;6.806;2022-10-04T05:17:57;14.48;;;1.08;;
46613;SDS011;32338;50.430;6.806;2022-10-04T05:20:24;1.35;;;1.20;;
46613;SDS011;32338;50.430;6.806;2022-10-04T05:22:51;3.70;;;0.95;;
46613;SDS011;32338;50.430;6.806;2022-10-04T05:25:21;1.63;;;0.75;;
46613;SDS011;32338;50.430;6.806;2022-10-04T05:27:53;1.48;;;0.85;;
46613;SDS011;32338;50.430;6.806;2022-10-04T05:33:13;1.02;;;0.90;;
46613;SDS011;32338;50.430;6.806;2022-10-04T05:35:51;1.75;;;0.95;;
46613;SDS011;32338;50.430;6.806;2022-10-04T05:38:53;1.33;;;0.70;;
46613;SDS011;32338;50.430;6.806;2022-10-04T05:41:28;3.00;;;1.05;;
46613;SDS011;32338;50.430;6.806;2022-10-04T05:44:00;0.82;;;0.82;;
46613;SDS011;32338;50.430;6.806;2022-10-04T05:46:27;6.63;;;1.00;;
46613;SDS011;32338;50.430;6.806;2022-10-04T05:48:55;3.63;;;0.90;;
46613;SDS011;32338;50.430;6.806;2022-10-04T05:51:28;0.82;;;0.82;;
46613;SDS011;32338;50.430;6.806;2022-10-04T05:53:59;1.50;;;0.95;;
46613;SDS011;32338;50.430;6.806;2022-10-04T05:56:35;5.30;;;0.82;;
46613;SDS011;32338;50.430;6.806;2022-10-04T05:59:18;3.10;;;0.98;;
46613;SDS011;32338;50.430;6.806;2022-10-04T06:01:58;9.13;;;1.10;;
46613;SDS011;32338;50.430;6.806;2022-10-04T06:04:50;10.38;;;0.80;;
46613;SDS011;32338;50.430;6.806;2022-10-04T06:07:28;6.07;;;0.80;;
46613;SDS011;32338;50.430;6.806;2022-10-04T06:10:04;2.42;;;1.00;;
46613;SDS011;32338;50.430;6.806;2022-10-04T06:12:45;5.60;;;1.05;;
46613;SDS011;32338;50.430;6.806;2022-10-04T06:15:27;16.48;;;1.02;;
46613;SDS011;32338;50.430;6.806;2022-10-04T06:18:14;18.65;;;1.10;;
46613;SDS011;32338;50.430;6.806;2022-10-04T06:20:57;14.27;;;2.42;;
46613;SDS011;32338;50.430;6.806;2022-10-04T06:23:41;29.65;;;3.42;;
46613;SDS011;32338;50.430;6.806;2022-10-04T06:26:17;101.53;;;8.27;;
46613;SDS011;32338;50.430;6.806;2022-10-04T06:28:49;25.73;;;3.67;;
46613;SDS011;32338;50.430;6.806;2022-10-04T06:34:25;255.40;;;6.45;;
46613;SDS011;32338;50.430;6.806;2022-10-04T06:37:09;214.18;;;4.85;;
46613;SDS011;32338;50.430;6.806;2022-10-04T06:39:55;110.20;;;3.72;;
46613;SDS011;32338;50.430;6.806;2022-10-04T06:42:45;28.20;;;2.10;;
46613;SDS011;32338;50.430;6.806;2022-10-04T06:45:27;2.78;;;1.25;;
46613;SDS011;32338;50.430;6.806;2022-10-04T06:48:09;56.45;;;2.28;;
46613;SDS011;32338;50.430;6.806;2022-10-04T06:50:59;77.38;;;2.83;;
46613;SDS011;32338;50.430;6.806;2022-10-04T06:53:33;72.93;;;2.90;;
46613;SDS011;32338;50.430;6.806;2022-10-04T07:02:25;30.83;;;2.35;;
46613;SDS011;32338;50.430;6.806;2022-10-04T07:04:56;12.95;;;2.08;;
46613;SDS011;32338;50.430;6.806;2022-10-04T07:07:28;87.32;;;2.65;;
46613;SDS011;32338;50.430;6.806;2022-10-04T07:10:02;21.35;;;2.22;;
46613;SDS011;32338;50.430;6.806;2022-10-04T07:15:32;4.07;;;1.83;;
46613;SDS011;32338;50.430;6.806;2022-10-04T07:18:07;3.67;;;1.92;;
46613;SDS011;32338;50.430;6.806;2022-10-04T07:20:39;38.92;;;2.20;;
46613;SDS011;32338;50.430;6.806;2022-10-04T07:23:07;25.25;;;1.83;;
46613;SDS011;32338;50.430;6.806;2022-10-04T07:25:42;1.55;;;1.40;;
46613;SDS011;32338;50.430;6.806;2022-10-04T07:28:13;3.80;;;2.75;;
46613;SDS011;32338;50.430;6.806;2022-10-04T07:31:02;29.45;;;3.70;;
46613;SDS011;32338;50.430;6.806;2022-10-04T07:33:35;35.38;;;2.83;;
46613;SDS011;32338;50.430;6.806;2022-10-04T07:36:09;2.40;;;2.17;;
46613;SDS011;32338;50.430;6.806;2022-10-04T07:38:38;9.02;;;2.42;;
46613;SDS011;32338;50.430;6.806;2022-10-04T07:41:17;6.28;;;2.58;;
46613;SDS011;32338;50.430;6.806;2022-10-04T07:43:48;6.43;;;3.22;;
46613;SDS011;32338;50.430;6.806;2022-10-04T07:46:34;5.53;;;3.85;;
46613;SDS011;32338;50.430;6.806;2022-10-04T07:49:10;7.07;;;4.75;;
46613;SDS011;32338;50.430;6.806;2022-10-04T07:51:39;14.18;;;5.68;;
46613;SDS011;32338;50.430;6.806;2022-10-04T07:54:15;10.93;;;6.30;;
46613;SDS011;32338;50.430;6.806;2022-10-04T07:56:49;9.15;;;5.30;;
46613;SDS011;32338;50.430;6.806;2022-10-04T07:59:24;7.80;;;4.65;;
46613;SDS011;32338;50.430;6.806;2022-10-04T08:02:02;6.25;;;4.85;;
46613;SDS011;32338;50.430;6.806;2022-10-04T08:04:43;6.32;;;5.10;;
46613;SDS011;32338;50.430;6.806;2022-10-04T08:07:17;8.00;;;5.40;;
46613;SDS011;32338;50.430;6.806;2022-10-04T08:09:52;8.68;;;6.10;;
46613;SDS011;32338;50.430;6.806;2022-10-04T08:12:27;6.95;;;6.25;;
46613;SDS011;32338;50.430;6.806;2022-10-04T08:15:08;9.90;;;6.07;;
46613;SDS011;32338;50.430;6.806;2022-10-04T08:17:52;9.38;;;4.63;;
46613;SDS011;32338;50.430;6.806;2022-10-04T08:20:30;5.13;;;4.22;;
46613;SDS011;32338;50.430;6.806;2022-10-04T08:23:06;6.88;;;4.90;;
46613;SDS011;32338;50.430;6.806;2022-10-04T08:25:47;4.75;;;4.13;;
46613;SDS011;32338;50.430;6.806;2022-10-04T08:28:26;4.90;;;4.32;;
46613;SDS011;32338;50.430;6.806;2022-10-04T08:31:21;4.68;;;4.28;;
46613;SDS011;32338;50.430;6.806;2022-10-04T08:33:59;7.97;;;4.60;;
46613;SDS011;32338;50.430;6.806;2022-10-04T08:36:41;4.55;;;4.15;;
46613;SDS011;32338;50.430;6.806;2022-10-04T08:39:20;5.45;;;4.88;;
46613;SDS011;32338;50.430;6.806;2022-10-04T08:42:09;6.57;;;3.90;;
46613;SDS011;32338;50.430;6.806;2022-10-04T08:45:06;7.78;;;4.25;;
46613;SDS011;32338;50.430;6.806;2022-10-04T08:48:04;4.20;;;3.72;;
46613;SDS011;32338;50.430;6.806;2022-10-04T08:54:23;7.68;;;4.80;;
46613;SDS011;32338;50.430;6.806;2022-10-04T08:57:18;4.55;;;4.07;;
46613;SDS011;32338;50.430;6.806;2022-10-04T09:00:10;4.97;;;4.10;;
46613;SDS011;32338;50.430;6.806;2022-10-04T09:06:04;16.48;;;5.75;;
46613;SDS011;32338;50.430;6.806;2022-10-04T09:12:07;11.27;;;5.32;;
46613;SDS011;32338;50.430;6.806;2022-10-04T09:15:00;6.63;;;5.60;;
46613;SDS011;32338;50.430;6.806;2022-10-04T09:17:41;16.83;;;6.10;;
46613;SDS011;32338;50.430;6.806;2022-10-04T09:20:19;7.03;;;5.20;;
46613;SDS011;32338;50.430;6.806;2022-10-04T09:22:53;10.05;;;4.97;;
46613;SDS011;32338;50.430;6.806;2022-10-04T09:25:26;8.52;;;4.32;;
46613;SDS011;32338;50.430;6.806;2022-10-04T09:31:07;9.55;;;4.47;;
46613;SDS011;32338;50.430;6.806;2022-10-04T09:33:50;12.45;;;4.43;;
46613;SDS011;32338;50.430;6.806;2022-10-04T09:39:21;8.35;;;4.55;;
46613;SDS011;32338;50.430;6.806;2022-10-04T09:45:14;8.93;;;4.38;;
46613;SDS011;32338;50.430;6.806;2022-10-04T09:47:53;4.68;;;3.78;;
46613;SDS011;32338;50.430;6.806;2022-10-04T09:50:46;6.68;;;3.58;;
46613;SDS011;32338;50.430;6.806;2022-10-04T09:53:34;5.25;;;3.88;;
46613;SDS011;32338;50.430;6.806;2022-10-04T09:56:21;7.53;;;3.45;;
46613;SDS011;32338;50.430;6.806;2022-10-04T09:59:10;7.60;;;3.33;;
46613;SDS011;32338;50.430;6.806;2022-10-04T10:01:57;7.03;;;3.35;;
46613;SDS011;32338;50.430;6.806;2022-10-04T10:04:54;8.02;;;3.92;;
46613;SDS011;32338;50.430;6.806;2022-10-04T10:07:38;11.33;;;4.20;;
46613;SDS011;32338;50.430;6.806;2022-10-04T10:10:15;11.30;;;3.58;;
46613;SDS011;32338;50.430;6.806;2022-10-04T10:16:10;6.18;;;3.78;;
46613;SDS011;32338;50.430;6.806;2022-10-04T10:18:48;6.95;;;3.40;;
46613;SDS011;32338;50.430;6.806;2022-10-04T10:27:30;7.32;;;3.38;;
46613;SDS011;32338;50.430;6.806;2022-10-04T10:36:03;5.07;;;3.03;;
46613;SDS011;32338;50.430;6.806;2022-10-04T10:42:10;7.18;;;3.10;;
46613;SDS011;32338;50.430;6.806;2022-10-04T10:47:47;5.80;;;3.17;;
46613;SDS011;32338;50.430;6.806;2022-10-04T10:56:35;5.47;;;2.55;;
46613;SDS011;32338;50.430;6.806;2022-10-04T10:59:28;8.93;;;2.90;;
46613;SDS011;32338;50.430;6.806;2022-10-04T11:02:32;5.75;;;2.47;;
46613;SDS011;32338;50.430;6.806;2022-10-04T11:08:29;4.88;;;2.00;;
46613;SDS011;32338;50.430;6.806;2022-10-04T11:11:19;5.20;;;1.90;;
46613;SDS011;32338;50.430;6.806;2022-10-04T11:14:09;2.60;;;1.92;;
46613;SDS011;32338;50.430;6.806;2022-10-04T11:20:10;3.03;;;2.42;;
46613;SDS011;32338;50.430;6.806;2022-10-04T11:26:06;3.42;;;1.80;;
46613;SDS011;32338;50.430;6.806;2022-10-04T11:28:51;6.80;;;2.20;;
46613;SDS011;32338;50.430;6.806;2022-10-04T11:34:36;4.68;;;2.05;;
46613;SDS011;32338;50.430;6.806;2022-10-04T11:37:35;5.13;;;1.90;;
46613;SDS011;32338;50.430;6.806;2022-10-04T11:40:21;5.35;;;1.65;;
46613;SDS011;32338;50.430;6.806;2022-10-04T11:42:59;5.32;;;1.60;;
46613;SDS011;32338;50.430;6.806;2022-10-04T11:45:53;5.25;;;1.60;;
46613;SDS011;32338;50.430;6.806;2022-10-04T11:48:32;2.35;;;1.50;;
46613;SDS011;32338;50.430;6.806;2022-10-04T11:54:37;3.50;;;1.50;;
46613;SDS011;32338;50.430;6.806;2022-10-04T11:57:23;1.55;;;1.40;;
46613;SDS011;32338;50.430;6.806;2022-10-04T11:59:58;3.90;;;1.00;;
46613;SDS011;32338;50.430;6.806;2022-10-04T12:02:55;2.97;;;1.17;;
46613;SDS011;32338;50.430;6.806;2022-10-04T12:05:47;2.67;;;1.45;;
46613;SDS011;32338;50.430;6.806;2022-10-04T12:08:25;3.78;;;1.13;;
46613;SDS011;32338;50.430;6.806;2022-10-04T12:11:24;3.42;;;1.30;;
46613;SDS011;32338;50.430;6.806;2022-10-04T12:14:24;2.20;;;1.00;;
46613;SDS011;32338;50.430;6.806;2022-10-04T12:17:18;1.80;;;1.13;;
46613;SDS011;32338;50.430;6.806;2022-10-04T12:20:19;2.05;;;0.77;;
46613;SDS011;32338;50.430;6.806;2022-10-04T12:23:07;1.75;;;0.82;;
46613;SDS011;32338;50.430;6.806;2022-10-04T12:26:01;1.70;;;1.10;;
46613;SDS011;32338;50.430;6.806;2022-10-04T12:29:00;1.50;;;1.38;;
46613;SDS011;32338;50.430;6.806;2022-10-04T12:31:41;2.90;;;0.90;;
46613;SDS011;32338;50.430;6.806;2022-10-04T12:34:13;5.20;;;1.10;;
46613;SDS011;32338;50.430;6.806;2022-10-04T12:36:52;3.10;;;1.30;;
46613;SDS011;32338;50.430;6.806;2022-10-04T12:39:42;2.75;;;1.20;;
46613;SDS011;32338;50.430;6.806;2022-10-04T12:42:21;2.47;;;1.38;;
46613;SDS011;32338;50.430;6.806;2022-10-04T12:45:15;4.32;;;0.90;;
46613;SDS011;32338;50.430;6.806;2022-10-04T12:48:05;2.75;;;0.77;;
46613;SDS011;32338;50.430;6.806;2022-10-04T12:50:45;3.40;;;1.35;;
46613;SDS011;32338;50.430;6.806;2022-10-04T12:53:21;1.58;;;0.90;;
46613;SDS011;32338;50.430;6.806;2022-10-04T12:56:09;1.75;;;0.82;;
46613;SDS011;32338;50.430;6.806;2022-10-04T12:58:52;3.78;;;1.15;;
46613;SDS011;32338;50.430;6.806;2022-10-04T13:01:30;2.15;;;1.17;;
46613;SDS011;32338;50.430;6.806;2022-10-04T13:04:10;4.50;;;1.20;;
46613;SDS011;32338;50.430;6.806;2022-10-04T13:06:50;1.50;;;1.00;;
46613;SDS011;32338;50.430;6.806;2022-10-04T13:09:27;2.95;;;1.10;;
46613;SDS011;32338;50.430;6.806;2022-10-04T13:12:14;2.00;;;0.95;;
46613;SDS011;32338;50.430;6.806;2022-10-04T13:14:58;1.30;;;1.20;;
46613;SDS011;32338;50.430;6.806;2022-10-04T13:17:37;3.13;;;1.23;;
46613;SDS011;32338;50.430;6.806;2022-10-04T13:20:19;2.30;;;1.20;;
46613;SDS011;32338;50.430;6.806;2022-10-04T13:22:57;3.50;;;1.00;;
46613;SDS011;32338;50.430;6.806;2022-10-04T13:25:34;4.03;;;1.20;;
46613;SDS011;32338;50.430;6.806;2022-10-04T13:28:10;2.15;;;1.00;;
46613;SDS011;32338;50.430;6.806;2022-10-04T13:30:47;1.48;;;1.13;;
46613;SDS011;32338;50.430;6.806;2022-10-04T13:33:20;1.88;;;1.27;;
46613;SDS011;32338;50.430;6.806;2022-10-04T13:35:56;2.13;;;0.90;;
46613;SDS011;32338;50.430;6.806;2022-10-04T13:38:34;3.22;;;1.05;;
46613;SDS011;32338;50.430;6.806;2022-10-04T13:41:26;2.35;;;1.00;;
46613;SDS011;32338;50.430;6.806;2022-10-04T13:47:27;1.65;;;0.95;;
46613;SDS011;32338;50.430;6.806;2022-10-04T13:50:07;1.45;;;0.90;;
46613;SDS011;32338;50.430;6.806;2022-10-04T13:52:52;4.10;;;1.08;;
46613;SDS011;32338;50.430;6.806;2022-10-04T13:55:46;1.30;;;0.90;;
46613;SDS011;32338;50.430;6.806;2022-10-04T13:58:41;1.80;;;1.00;;
46613;SDS011;32338;50.430;6.806;2022-10-04T14:01:24;1.58;;;0.80;;
46613;SDS011;32338;50.430;6.806;2022-10-04T14:04:10;1.20;;;0.70;;
46613;SDS011;32338;50.430;6.806;2022-10-04T14:09:55;1.52;;;0.90;;
46613;SDS011;32338;50.430;6.806;2022-10-04T14:18:26;2.53;;;0.75;;
46613;SDS011;32338;50.430;6.806;2022-10-04T14:21:35;1.75;;;0.63;;
46613;SDS011;32338;50.430;6.806;2022-10-04T14:27:42;2.17;;;0.75;;
46613;SDS011;32338;50.430;6.806;2022-10-04T14:30:22;1.25;;;0.68;;
46613;SDS011;32338;50.430;6.806;2022-10-04T14:33:02;1.92;;;0.85;;
46613;SDS011;32338;50.430;6.806;2022-10-04T14:36:00;1.35;;;0.80;;
46613;SDS011;32338;50.430;6.806;2022-10-04T14:39:01;2.67;;;0.75;;
46613;SDS011;32338;50.430;6.806;2022-10-04T14:41:58;0.90;;;0.80;;
46613;SDS011;32338;50.430;6.806;2022-10-04T14:44:41;1.15;;;0.88;;
46613;SDS011;32338;50.430;6.806;2022-10-04T14:47:30;1.75;;;0.80;;
46613;SDS011;32338;50.430;6.806;2022-10-04T14:50:15;1.10;;;0.88;;
46613;SDS011;32338;50.430;6.806;2022-10-04T14:53:00;1.60;;;0.82;;
46613;SDS011;32338;50.430;6.806;2022-10-04T14:55:55;2.28;;;0.90;;
46613;SDS011;32338;50.430;6.806;2022-10-04T14:58:38;2.92;;;0.95;;
46613;SDS011;32338;50.430;6.806;2022-10-04T15:01:19;1.52;;;0.80;;
46613;SDS011;32338;50.430;6.806;2022-10-04T15:03:49;1.23;;;0.70;;
46613;SDS011;32338;50.430;6.806;2022-10-04T15:06:35;0.77;;;0.70;;
46613;SDS011;32338;50.430;6.806;2022-10-04T15:09:17;3.38;;;1.10;;
46613;SDS011;32338;50.430;6.806;2022-10-04T15:11:52;3.03;;;0.60;;
46613;SDS011;32338;50.430;6.806;2022-10-04T15:14:25;6.07;;;0.95;;
46613;SDS011;32338;50.430;6.806;2022-10-04T15:17:00;1.20;;;0.80;;
46613;SDS011;32338;50.430;6.806;2022-10-04T15:19:29;2.20;;;0.90;;
46613;SDS011;32338;50.430;6.806;2022-10-04T15:22:04;2.78;;;0.82;;
46613;SDS011;32338;50.430;6.806;2022-10-04T15:27:37;0.93;;;0.77;;
46613;SDS011;32338;50.430;6.806;2022-10-04T15:30:25;1.65;;;0.73;;
46613;SDS011;32338;50.430;6.806;2022-10-04T15:38:56;4.43;;;0.80;;
46613;SDS011;32338;50.430;6.806;2022-10-04T15:41:31;1.83;;;0.82;;
46613;SDS011;32338;50.430;6.806;2022-10-04T15:47:07;1.35;;;0.90;;
46613;SDS011;32338;50.430;6.806;2022-10-04T15:49:46;1.50;;;0.90;;
46613;SDS011;32338;50.430;6.806;2022-10-04T15:52:43;2.03;;;1.15;;
46613;SDS011;32338;50.430;6.806;2022-10-04T15:55:47;2.00;;;0.90;;
46613;SDS011;32338;50.430;6.806;2022-10-04T15:58:26;3.80;;;1.20;;
46613;SDS011;32338;50.430;6.806;2022-10-04T16:01:11;2.50;;;1.05;;
46613;SDS011;32338;50.430;6.806;2022-10-04T16:04:04;2.05;;;0.93;;
46613;SDS011;32338;50.430;6.806;2022-10-04T16:06:43;4.32;;;1.52;;
46613;SDS011;32338;50.430;6.806;2022-10-04T16:09:20;1.80;;;1.00;;
46613;SDS011;32338;50.430;6.806;2022-10-04T16:12:01;2.60;;;1.30;;
46613;SDS011;32338;50.430;6.806;2022-10-04T16:14:45;4.13;;;1.20;;
46613;SDS011;32338;50.430;6.806;2022-10-04T16:20:29;3.10;;;1.00;;
46613;SDS011;32338;50.430;6.806;2022-10-04T16:23:28;3.42;;;1.42;;
46613;SDS011;32338;50.430;6.806;2022-10-04T16:25:59;3.45;;;1.17;;
46613;SDS011;32338;50.430;6.806;2022-10-04T16:31:42;5.07;;;1.10;;
46613;SDS011;32338;50.430;6.806;2022-10-04T16:34:15;3.75;;;1.30;;
46613;SDS011;32338;50.430;6.806;2022-10-04T16:36:53;2.08;;;1.30;;
46613;SDS011;32338;50.430;6.806;2022-10-04T16:39:31;1.65;;;1.30;;
46613;SDS011;32338;50.430;6.806;2022-10-04T16:42:18;7.25;;;6.07;;
46613;SDS011;32338;50.430;6.806;2022-10-04T16:44:50;7.35;;;3.75;;
46613;SDS011;32338;50.430;6.806;2022-10-04T16:47:22;28.10;;;14.48;;
46613;SDS011;32338;50.430;6.806;2022-10-04T16:49:53;27.00;;;14.73;;
46613;SDS011;32338;50.430;6.806;2022-10-04T16:55:23;4.97;;;2.88;;
46613;SDS011;32338;50.430;6.806;2022-10-04T17:04:11;7.22;;;2.30;;
46613;SDS011;32338;50.430;6.806;2022-10-04T17:06:50;4.85;;;1.80;;
46613;SDS011;32338;50.430;6.806;2022-10-04T17:09:23;3.83;;;1.60;;
46613;SDS011;32338;50.430;6.806;2022-10-04T17:12:04;4.72;;;1.67;;
46613;SDS011;32338;50.430;6.806;2022-10-04T17:17:53;3.97;;;1.90;;
46613;SDS011;32338;50.430;6.806;2022-10-04T17:20:28;5.72;;;1.50;;
46613;SDS011;32338;50.430;6.806;2022-10-04T17:23:15;1.98;;;1.70;;
46613;SDS011;32338;50.430;6.806;2022-10-04T17:25:55;3.28;;;2.20;;
46613;SDS011;32338;50.430;6.806;2022-10-04T17:28:33;6.32;;;3.03;;
46613;SDS011;32338;50.430;6.806;2022-10-04T17:31:10;4.45;;;3.53;;
46613;SDS011;32338;50.430;6.806;2022-10-04T17:33:49;22.08;;;7.88;;
46613;SDS011;32338;50.430;6.806;2022-10-04T17:36:33;15.55;;;8.50;;
46613;SDS011;32338;50.430;6.806;2022-10-04T17:39:10;13.88;;;7.30;;
46613;SDS011;32338;50.430;6.806;2022-10-04T17:44:32;5.03;;;2.10;;
46613;SDS011;32338;50.430;6.806;2022-10-04T17:47:06;10.07;;;5.32;;
46613;SDS011;32338;50.430;6.806;2022-10-04T17:49:40;6.20;;;3.00;;
46613;SDS011;32338;50.430;6.806;2022-10-04T17:52:41;9.15;;;3.80;;
46613;SDS011;32338;50.430;6.806;2022-10-04T17:55:32;7.28;;;3.15;;
46613;SDS011;32338;50.430;6.806;2022-10-04T17:58:10;4.10;;;2.38;;
46613;SDS011;32338;50.430;6.806;2022-10-04T18:00:56;4.32;;;3.22;;
46613;SDS011;32338;50.430;6.806;2022-10-04T18:03:30;7.03;;;3.42;;
46613;SDS011;32338;50.430;6.806;2022-10-04T18:06:03;6.63;;;3.72;;
46613;SDS011;32338;50.430;6.806;2022-10-04T18:08:42;7.07;;;2.42;;
46613;SDS011;32338;50.430;6.806;2022-10-04T18:11:17;5.10;;;1.75;;